createdAt,value
2019-02-21T00:01:35.817Z,12.70
2019-02-21T00:04:03.287Z,16.05
2019-02-21T00:06:30.747Z,13.77
2019-02-21T00:08:58.214Z,15.07
2019-02-21T00:11:25.681Z,12.35
2019-02-21T00:13:53.153Z,11.70
2019-02-21T00:16:20.622Z,11.93
2019-02-21T00:18:49.230Z,12.20
2019-02-21T00:21:16.743Z,13.37
2019-02-21T00:23:44.235Z,12.00
2019-02-21T00:26:11.699Z,11.63
2019-02-21T00:28:39.137Z,10.77
2019-02-21T00:31:06.607Z,11.93
2019-02-21T00:33:34.081Z,13.87
2019-02-21T00:36:01.547Z,13.57
2019-02-21T00:38:28.994Z,11.10
2019-02-21T00:40:56.470Z,14.50
2019-02-21T00:43:23.933Z,15.32
2019-02-21T00:45:51.378Z,11.60
2019-02-21T00:48:18.856Z,11.17
2019-02-21T00:50:46.893Z,12.20
2019-02-21T00:53:14.385Z,14.03
2019-02-21T00:55:41.833Z,11.63
2019-02-21T00:58:09.294Z,13.30
2019-02-21T01:00:46.136Z,12.83
2019-02-21T01:03:04.207Z,14.13
2019-02-21T01:05:31.664Z,12.82
2019-02-21T01:07:59.165Z,11.65
2019-02-21T01:10:26.607Z,10.70
2019-02-21T01:12:54.069Z,10.53
2019-02-21T01:15:21.557Z,12.33
2019-02-21T01:17:49.005Z,11.00
2019-02-21T01:20:17.452Z,13.20
2019-02-21T01:22:44.922Z,13.63
2019-02-21T01:25:12.419Z,12.15
2019-02-21T01:27:39.891Z,13.07
2019-02-21T01:30:07.344Z,11.90
2019-02-21T01:32:34.823Z,13.00
2019-02-21T01:35:02.254Z,10.07
2019-02-21T01:37:29.739Z,13.57
2019-02-21T01:39:57.217Z,13.50
2019-02-21T01:42:26.004Z,13.65
2019-02-21T01:44:53.577Z,11.77
2019-02-21T01:47:21.045Z,12.37
2019-02-21T01:49:48.517Z,13.27
2019-02-21T01:52:15.987Z,12.80
2019-02-21T01:54:43.474Z,12.53
2019-02-21T01:57:10.953Z,12.77
2019-02-21T01:59:38.429Z,13.07
2019-02-21T02:02:05.867Z,14.57
2019-02-21T02:04:33.327Z,12.67
2019-02-21T02:07:00.792Z,12.47
2019-02-21T02:09:28.242Z,13.13
2019-02-21T02:11:55.700Z,13.73
2019-02-21T02:14:23.151Z,15.68
2019-02-21T02:16:50.617Z,13.47
2019-02-21T02:19:18.496Z,13.23
2019-02-21T02:21:45.985Z,16.73
2019-02-21T02:24:14.842Z,13.77
2019-02-21T02:26:41.832Z,18.00
2019-02-21T02:29:09.385Z,13.27
2019-02-21T02:31:36.833Z,12.50
2019-02-21T02:34:04.299Z,13.15
2019-02-21T02:36:31.758Z,13.55
2019-02-21T02:38:59.227Z,13.97
2019-02-21T02:41:26.671Z,14.40
2019-02-21T02:43:54.097Z,15.00
2019-02-21T02:46:21.539Z,15.40
2019-02-21T02:48:49.069Z,16.00
2019-02-21T02:51:16.559Z,15.00
2019-02-21T02:53:44.020Z,15.50
2019-02-21T02:56:11.489Z,13.13
2019-02-21T02:58:38.984Z,13.03
2019-02-21T03:01:07.503Z,12.47
2019-02-21T03:03:35.125Z,14.07
2019-02-21T03:06:02.641Z,12.87
2019-02-21T03:08:30.082Z,12.70
2019-02-21T03:10:57.519Z,14.77
2019-02-21T03:13:24.979Z,13.47
2019-02-21T03:15:52.409Z,12.23
2019-02-21T03:18:19.853Z,12.43
2019-02-21T03:20:47.309Z,11.63
2019-02-21T03:23:14.795Z,12.00
2019-02-21T03:25:42.259Z,15.27
2019-02-21T03:28:09.725Z,14.33
2019-02-21T03:30:37.173Z,12.50
2019-02-21T03:33:04.651Z,11.67
2019-02-21T03:35:33.677Z,12.27
2019-02-21T03:38:01.122Z,12.70
2019-02-21T03:40:28.588Z,12.68
2019-02-21T03:42:56.127Z,12.63
2019-02-21T03:45:23.551Z,12.17
2019-02-21T03:47:51.009Z,14.17
2019-02-21T03:50:18.497Z,12.67
2019-02-21T03:52:45.984Z,12.20
2019-02-21T03:55:13.443Z,12.43
2019-02-21T03:57:40.898Z,11.70
2019-02-21T04:00:08.381Z,13.50
2019-02-21T04:02:35.849Z,11.70
2019-02-21T04:05:03.375Z,13.53
2019-02-21T04:07:30.815Z,12.70
2019-02-21T04:09:58.304Z,12.85
2019-02-21T04:12:25.751Z,11.90
2019-02-21T04:14:53.214Z,13.37
2019-02-21T04:17:20.993Z,13.88
2019-02-21T04:19:48.620Z,13.00
2019-02-21T04:22:16.123Z,12.83
2019-02-21T04:24:43.575Z,12.37
2019-02-21T04:27:11.032Z,12.57
2019-02-21T04:29:38.530Z,11.17
2019-02-21T04:32:16.659Z,14.53
2019-02-21T04:34:33.470Z,13.10
2019-02-21T04:37:00.946Z,15.02
2019-02-21T04:39:28.407Z,15.40
2019-02-21T04:41:55.912Z,13.13
2019-02-21T04:44:23.379Z,14.73
2019-02-21T04:46:51.633Z,16.73
2019-02-21T04:49:19.059Z,14.40
2019-02-21T04:51:46.547Z,14.15
2019-02-21T04:54:13.978Z,15.03
2019-02-21T04:56:41.498Z,15.97
2019-02-21T04:59:08.968Z,14.33
2019-02-21T05:01:36.443Z,17.02
2019-02-21T05:04:04.931Z,17.90
2019-02-21T05:06:31.372Z,18.30
2019-02-21T05:08:58.861Z,15.17
2019-02-21T05:11:26.335Z,15.23
2019-02-21T05:13:54.077Z,15.20
2019-02-21T05:16:22.324Z,15.90
2019-02-21T05:18:49.809Z,14.67
2019-02-21T05:21:17.269Z,15.87
2019-02-21T05:23:44.738Z,17.23
2019-02-21T05:26:12.186Z,19.00
2019-02-21T05:28:41.280Z,20.25
2019-02-21T05:31:22.922Z,18.87
2019-02-21T05:33:50.878Z,18.20
2019-02-21T05:36:21.325Z,16.03
2019-02-21T05:39:07.511Z,18.23
2019-02-21T05:41:35.755Z,20.37
2019-02-21T05:44:08.920Z,18.67
2019-02-21T05:46:37.899Z,17.17
2019-02-21T05:49:11.484Z,17.23
2019-02-21T05:51:38.075Z,17.73
2019-02-21T05:54:07.072Z,23.30
2019-02-21T05:56:35.386Z,19.10
2019-02-21T05:59:05.652Z,25.95
2019-02-21T06:01:33.878Z,19.40
2019-02-21T06:04:19.399Z,27.27
2019-02-21T06:06:45.470Z,18.90
2019-02-21T06:09:12.930Z,18.63
2019-02-21T06:11:42.222Z,20.45
2019-02-21T06:14:11.416Z,18.93
2019-02-21T06:16:40.728Z,19.23
2019-02-21T06:19:09.124Z,24.37
2019-02-21T06:21:38.137Z,22.87
2019-02-21T06:24:11.258Z,20.08
2019-02-21T06:26:39.626Z,22.35
2019-02-21T06:29:06.685Z,27.15
2019-02-21T06:31:34.195Z,21.07
2019-02-21T06:34:01.781Z,19.50
2019-02-21T06:36:29.264Z,21.07
2019-02-21T06:38:56.719Z,24.40
2019-02-21T06:41:24.213Z,24.33
2019-02-21T06:43:52.692Z,21.83
2019-02-21T06:46:19.271Z,24.23
2019-02-21T06:48:46.725Z,22.07
2019-02-21T06:51:14.252Z,25.37
2019-02-21T06:53:41.638Z,24.75
2019-02-21T06:56:09.096Z,27.30
2019-02-21T06:58:36.540Z,26.43
2019-02-21T07:01:03.970Z,27.73
2019-02-21T07:03:31.461Z,25.27
2019-02-21T07:05:58.915Z,29.67
2019-02-21T07:08:26.464Z,23.00
2019-02-21T07:11:05.457Z,27.37
2019-02-21T07:13:26.466Z,26.37
2019-02-21T07:15:49.495Z,23.90
2019-02-21T07:18:17.037Z,29.30
2019-02-21T07:20:44.538Z,24.80
2019-02-21T07:23:12.016Z,27.87
2019-02-21T07:25:47.627Z,26.67
2019-02-21T07:28:16.092Z,26.97
2019-02-21T07:30:43.086Z,29.37
2019-02-21T07:33:10.087Z,26.73
2019-02-21T07:35:37.557Z,24.90
2019-02-21T07:38:05.021Z,29.57
2019-02-21T07:40:32.486Z,29.13
2019-02-21T07:42:59.914Z,30.08
2019-02-21T07:45:27.402Z,30.27
2019-02-21T07:47:55.349Z,28.05
2019-02-21T07:50:23.271Z,29.60
2019-02-21T07:53:01.538Z,26.43
2019-02-21T07:55:17.853Z,32.73
2019-02-21T07:57:45.326Z,32.60
2019-02-21T08:00:12.800Z,35.57
2019-02-21T08:02:40.271Z,27.45
2019-02-21T08:05:07.713Z,27.17
2019-02-21T08:07:35.162Z,34.47
2019-02-21T08:10:02.651Z,30.87
2019-02-21T08:12:30.111Z,28.13
2019-02-21T08:14:57.578Z,28.67
2019-02-21T08:17:27.826Z,28.55
2019-02-21T08:19:53.357Z,30.80
2019-02-21T08:22:20.890Z,28.90
2019-02-21T08:24:48.376Z,27.13
2019-02-21T08:27:15.812Z,29.33
2019-02-21T08:29:43.263Z,23.93
2019-02-21T08:32:10.699Z,24.37
2019-02-21T08:34:39.138Z,27.07
2019-02-21T08:37:08.742Z,26.00
2019-02-21T08:39:34.065Z,25.97
2019-02-21T08:42:01.524Z,28.13
2019-02-21T08:44:29.142Z,27.27
2019-02-21T08:46:56.566Z,25.83
2019-02-21T08:49:23.995Z,24.60
2019-02-21T08:51:51.487Z,27.03
2019-02-21T08:54:18.941Z,22.97
2019-02-21T08:56:46.407Z,32.53
2019-02-21T08:59:13.889Z,25.83
2019-02-21T09:01:41.348Z,25.17
2019-02-21T09:04:13.553Z,24.87
2019-02-21T09:06:36.270Z,27.07
2019-02-21T09:09:03.746Z,27.90
2019-02-21T09:11:31.187Z,27.37
2019-02-21T09:13:58.647Z,29.87
2019-02-21T09:16:27.027Z,27.90
2019-02-21T09:18:54.507Z,28.13
2019-02-21T09:21:21.977Z,30.57
2019-02-21T09:23:49.945Z,31.40
2019-02-21T09:26:17.396Z,32.97
2019-02-21T09:28:44.866Z,25.95
2019-02-21T09:31:12.320Z,29.77
2019-02-21T09:33:39.786Z,32.43
2019-02-21T09:36:07.249Z,27.00
2019-02-21T09:38:34.925Z,30.23
2019-02-21T09:41:02.236Z,30.30
2019-02-21T09:43:29.691Z,30.13
2019-02-21T09:45:59.139Z,31.02
2019-02-21T09:48:27.498Z,28.83
2019-02-21T09:50:54.978Z,28.43
2019-02-21T09:53:22.488Z,27.03
2019-02-21T09:55:50.521Z,29.77
2019-02-21T09:58:17.420Z,31.00
2019-02-21T10:00:44.870Z,31.83
2019-02-21T10:03:12.327Z,29.13
2019-02-21T10:05:39.811Z,30.70
2019-02-21T10:08:09.137Z,31.75
2019-02-21T10:10:36.733Z,30.13
2019-02-21T10:13:04.367Z,33.57
2019-02-21T10:15:31.850Z,26.17
2019-02-21T10:17:59.309Z,27.53
2019-02-21T10:20:28.089Z,26.33
2019-02-21T10:22:55.538Z,27.87
2019-02-21T10:25:23.394Z,25.63
2019-02-21T10:27:50.515Z,30.53
2019-02-21T10:30:18.006Z,30.80
2019-02-21T10:32:45.493Z,32.57
2019-02-21T10:35:12.943Z,30.17
2019-02-21T10:37:40.425Z,28.80
2019-02-21T10:40:07.878Z,32.63
2019-02-21T10:42:35.343Z,28.77
2019-02-21T10:45:03.511Z,29.60
2019-02-21T10:47:30.266Z,30.07
2019-02-21T10:49:58.770Z,28.93
2019-02-21T10:52:26.235Z,28.90
2019-02-21T10:54:53.706Z,31.90
2019-02-21T10:57:21.135Z,30.00
2019-02-21T10:59:48.596Z,30.97
2019-02-21T11:02:16.063Z,29.40
2019-02-21T11:04:54.147Z,29.13
2019-02-21T11:07:10.988Z,27.62
2019-02-21T11:09:38.439Z,28.50
2019-02-21T11:12:05.910Z,27.73
2019-02-21T11:14:33.396Z,30.42
2019-02-21T11:17:00.895Z,31.03
2019-02-21T11:19:29.241Z,25.85
2019-02-21T11:21:56.710Z,29.43
2019-02-21T11:24:24.188Z,27.10
2019-02-21T11:26:51.632Z,26.93
2019-02-21T11:29:19.098Z,26.67
2019-02-21T11:31:46.573Z,26.33
2019-02-21T11:34:14.018Z,29.00
2019-02-21T11:36:41.481Z,25.27
2019-02-21T11:39:08.951Z,23.77
2019-02-21T11:41:37.373Z,23.37
2019-02-21T11:44:04.904Z,22.50
2019-02-21T11:46:32.335Z,21.77
2019-02-21T11:48:59.791Z,20.67
2019-02-21T11:51:27.275Z,20.43
2019-02-21T11:53:54.805Z,20.37
2019-02-21T11:56:22.310Z,20.27
2019-02-21T11:58:49.790Z,20.80
2019-02-21T12:01:17.236Z,17.53
2019-02-21T12:03:44.695Z,21.10
2019-02-21T12:06:12.151Z,22.20
2019-02-21T12:08:39.602Z,21.40
2019-02-21T12:11:07.075Z,19.27
2019-02-21T12:13:34.536Z,21.10
2019-02-21T12:16:02.009Z,22.60
2019-02-21T12:18:30.244Z,20.33
2019-02-21T12:20:57.751Z,20.10
2019-02-21T12:23:25.249Z,20.85
2019-02-21T12:25:52.754Z,19.90
2019-02-21T12:28:20.233Z,22.80
2019-02-21T12:30:48.219Z,20.67
2019-02-21T12:33:15.858Z,21.40
2019-02-21T12:35:43.323Z,18.90
2019-02-21T12:38:10.776Z,20.43
2019-02-21T12:40:38.336Z,18.60
2019-02-21T12:43:05.713Z,17.80
2019-02-21T12:45:33.184Z,18.03
2019-02-21T12:48:00.817Z,19.85
2019-02-21T12:50:28.337Z,21.20
2019-02-21T12:52:55.789Z,18.43
2019-02-21T12:55:29.250Z,17.23
2019-02-21T12:57:50.710Z,15.03
2019-02-21T13:00:19.035Z,15.60
2019-02-21T13:02:46.503Z,13.27
2019-02-21T13:05:13.987Z,15.35
2019-02-21T13:07:41.475Z,13.27
2019-02-21T13:10:11.733Z,13.53
2019-02-21T13:12:39.243Z,13.15
2019-02-21T13:15:06.705Z,17.03
2019-02-21T13:17:34.211Z,13.50
2019-02-21T13:20:01.676Z,15.27
2019-02-21T13:22:29.135Z,17.17
2019-02-21T13:24:56.577Z,14.00
2019-02-21T13:27:24.039Z,11.90
2019-02-21T13:29:54.475Z,14.20
2019-02-21T13:32:18.964Z,13.60
2019-02-21T13:34:46.427Z,13.33
2019-02-21T13:37:14.213Z,12.37
2019-02-21T13:39:42.329Z,12.43
2019-02-21T13:42:09.808Z,13.13
2019-02-21T13:44:37.278Z,12.30
2019-02-21T13:47:04.735Z,13.27
2019-02-21T13:49:32.212Z,13.47
2019-02-21T13:51:59.651Z,12.00
2019-02-21T13:54:27.131Z,11.67
2019-02-21T13:56:54.585Z,11.90
2019-02-21T13:59:22.043Z,13.75
2019-02-21T14:01:49.507Z,12.83
2019-02-21T14:04:16.943Z,11.98
2019-02-21T14:06:44.405Z,11.50
2019-02-21T14:09:11.921Z,13.77
2019-02-21T14:11:39.416Z,12.75
2019-02-21T14:14:06.872Z,14.05
2019-02-21T14:16:43.830Z,11.43
2019-02-21T14:19:02.607Z,14.85
2019-02-21T14:21:30.096Z,18.93
2019-02-21T14:23:57.541Z,17.85
2019-02-21T14:26:25.036Z,16.60
2019-02-21T14:28:52.485Z,14.53
2019-02-21T14:31:19.938Z,12.80
2019-02-21T14:33:47.417Z,13.47
2019-02-21T14:36:16.785Z,12.87
2019-02-21T14:38:42.330Z,8.93
2019-02-21T14:41:09.803Z,8.73
2019-02-21T14:43:37.290Z,8.77
2019-02-21T14:46:04.751Z,13.33
2019-02-21T14:48:33.128Z,8.80
2019-02-21T14:51:00.597Z,9.07
2019-02-21T14:53:28.041Z,10.10
2019-02-21T14:55:55.573Z,10.07
2019-02-21T14:58:23.019Z,11.80
2019-02-21T15:00:50.487Z,11.53
2019-02-21T15:03:21.908Z,10.57
2019-02-21T15:05:45.440Z,10.50
2019-02-21T15:08:12.914Z,10.00
2019-02-21T15:10:40.376Z,10.20
2019-02-21T15:13:07.862Z,10.63
2019-02-21T15:15:35.298Z,10.43
2019-02-21T15:18:07.373Z,10.20
2019-02-21T15:20:36.897Z,11.63
2019-02-21T15:22:58.773Z,10.20
2019-02-21T15:25:26.256Z,13.13
2019-02-21T15:27:53.714Z,11.13
2019-02-21T15:30:22.059Z,14.27
2019-02-21T15:32:49.529Z,13.37
2019-02-21T15:35:19.263Z,13.20
2019-02-21T15:37:45.130Z,12.07
2019-02-21T15:40:12.003Z,13.13
2019-02-21T15:42:39.489Z,19.13
2019-02-21T15:45:09.710Z,14.17
2019-02-21T15:47:35.819Z,13.53
2019-02-21T15:50:04.395Z,16.55
2019-02-21T15:52:31.837Z,14.73
2019-02-21T15:54:59.295Z,14.13
2019-02-21T15:57:26.762Z,17.57
2019-02-21T15:59:54.238Z,15.63
2019-02-21T16:02:21.746Z,14.10
2019-02-21T16:04:49.847Z,17.35
2019-02-21T16:07:17.413Z,15.10
2019-02-21T16:09:44.860Z,15.90
2019-02-21T16:12:12.556Z,15.40
2019-02-21T16:14:39.817Z,16.47
2019-02-21T16:17:07.313Z,15.57
2019-02-21T16:19:35.717Z,17.15
2019-02-21T16:22:03.181Z,14.90
2019-02-21T16:24:30.687Z,15.90
2019-02-21T16:26:59.937Z,16.00
2019-02-21T16:29:28.320Z,15.00
2019-02-21T16:31:55.787Z,15.80
2019-02-21T16:34:23.251Z,15.65
2019-02-21T16:37:01.861Z,18.00
2019-02-21T16:39:18.242Z,17.23
2019-02-21T16:41:45.711Z,20.90
2019-02-21T16:44:13.194Z,18.23
2019-02-21T16:46:40.644Z,17.83
2019-02-21T16:49:08.663Z,20.13
2019-02-21T16:51:36.205Z,17.83
2019-02-21T16:54:03.672Z,17.20
2019-02-21T16:56:31.138Z,17.07
2019-02-21T16:58:58.644Z,17.00
2019-02-21T17:01:26.075Z,18.60
2019-02-21T17:03:53.562Z,19.70
2019-02-21T17:06:21.037Z,17.83
2019-02-21T17:08:48.502Z,19.80
2019-02-21T17:11:18.110Z,19.93
2019-02-21T17:13:45.779Z,17.17
2019-02-21T17:16:13.223Z,18.40
2019-02-21T17:18:40.701Z,19.40
2019-02-21T17:21:08.153Z,21.60
2019-02-21T17:23:36.123Z,20.47
2019-02-21T17:26:03.587Z,19.50
2019-02-21T17:28:31.067Z,17.53
2019-02-21T17:30:58.501Z,20.20
2019-02-21T17:33:25.988Z,17.40
2019-02-21T17:35:53.440Z,18.48
2019-02-21T17:38:20.901Z,21.57
2019-02-21T17:40:48.379Z,31.75
2019-02-21T17:43:16.066Z,27.33
2019-02-21T17:45:43.882Z,24.90
2019-02-21T17:48:12.724Z,22.20
2019-02-21T17:50:40.663Z,20.83
2019-02-21T17:53:09.409Z,21.67
2019-02-21T17:55:37.827Z,23.13
2019-02-21T17:58:06.097Z,21.40
2019-02-21T18:00:41.073Z,20.57
2019-02-21T18:03:08.543Z,19.60
2019-02-21T18:05:35.989Z,21.67
2019-02-21T18:08:03.497Z,22.03
2019-02-21T18:10:30.978Z,20.90
2019-02-21T18:12:58.462Z,22.97
2019-02-21T18:15:25.944Z,21.40
2019-02-21T18:17:53.454Z,20.97
2019-02-21T18:20:20.941Z,20.17
2019-02-21T18:22:49.035Z,23.63
2019-02-21T18:25:16.620Z,23.27
2019-02-21T18:27:44.161Z,21.73
2019-02-21T18:30:11.871Z,20.90
2019-02-21T18:32:40.013Z,22.63
2019-02-21T18:35:07.878Z,23.83
2019-02-21T18:37:46.670Z,26.37
2019-02-21T18:40:04.176Z,26.37
2019-02-21T18:42:31.900Z,25.27
2019-02-21T18:44:59.404Z,25.73
2019-02-21T18:47:26.882Z,22.50
2019-02-21T18:49:54.355Z,21.97
2019-02-21T18:52:21.977Z,25.70
2019-02-21T18:54:49.860Z,26.50
2019-02-21T18:57:17.474Z,27.87
2019-02-21T18:59:45.135Z,24.87
2019-02-21T19:02:12.615Z,25.17
2019-02-21T19:04:40.050Z,26.57
2019-02-21T19:07:08.567Z,30.85
2019-02-21T19:09:36.038Z,30.70
2019-02-21T19:12:04.574Z,35.70
2019-02-21T19:14:32.095Z,34.63
2019-02-21T19:16:59.568Z,36.03
2019-02-21T19:19:27.024Z,34.97
2019-02-21T19:21:54.488Z,35.15
2019-02-21T19:24:22.006Z,32.77
2019-02-21T19:26:49.471Z,34.20
2019-02-21T19:29:16.956Z,38.30
2019-02-21T19:31:44.501Z,34.90
2019-02-21T19:34:11.962Z,36.57
2019-02-21T19:36:39.427Z,33.63
2019-02-21T19:39:06.900Z,36.37
2019-02-21T19:41:34.419Z,35.87
2019-02-21T19:44:08.743Z,36.73
2019-02-21T19:46:29.382Z,40.43
2019-02-21T19:48:56.940Z,44.70
2019-02-21T19:51:24.428Z,48.13
2019-02-21T19:53:51.900Z,55.50
2019-02-21T19:56:19.408Z,47.65
2019-02-21T19:58:46.879Z,47.30
2019-02-21T20:01:14.336Z,43.38
2019-02-21T20:03:41.887Z,47.17
2019-02-21T20:06:09.749Z,41.15
2019-02-21T20:08:37.242Z,42.10
2019-02-21T20:11:04.736Z,45.07
2019-02-21T20:13:32.246Z,40.20
2019-02-21T20:15:59.760Z,39.00
2019-02-21T20:18:27.252Z,42.35
2019-02-21T20:20:56.108Z,47.97
2019-02-21T20:23:23.638Z,41.33
2019-02-21T20:25:51.116Z,44.50
2019-02-21T20:28:18.628Z,42.07
2019-02-21T20:30:46.117Z,46.30
2019-02-21T20:33:13.604Z,45.97
2019-02-21T20:35:41.078Z,46.30
2019-02-21T20:38:08.519Z,45.50
2019-02-21T20:40:35.970Z,42.67
2019-02-21T20:43:03.596Z,44.47
2019-02-21T20:45:31.081Z,46.57
2019-02-21T20:47:58.566Z,49.40
2019-02-21T20:50:26.065Z,48.92
2019-02-21T20:52:53.529Z,44.55
2019-02-21T20:55:21.046Z,43.67
2019-02-21T20:57:48.724Z,45.90
2019-02-21T21:00:16.222Z,42.42
2019-02-21T21:02:43.684Z,44.13
2019-02-21T21:05:11.309Z,52.87
2019-02-21T21:07:38.760Z,45.20
2019-02-21T21:10:06.215Z,46.13
2019-02-21T21:12:33.717Z,49.23
2019-02-21T21:15:01.210Z,50.00
2019-02-21T21:17:28.663Z,50.80
2019-02-21T21:19:56.146Z,44.43
2019-02-21T21:22:23.590Z,47.97
2019-02-21T21:24:51.091Z,42.50
2019-02-21T21:27:18.828Z,48.58
2019-02-21T21:29:46.333Z,50.20
2019-02-21T21:32:13.841Z,51.57
2019-02-21T21:34:41.798Z,49.70
2019-02-21T21:37:09.282Z,45.53
2019-02-21T21:39:36.732Z,49.37
2019-02-21T21:42:04.254Z,47.40
2019-02-21T21:44:31.705Z,49.07
2019-02-21T21:46:59.191Z,49.72
2019-02-21T21:49:26.683Z,54.17
2019-02-21T21:51:54.154Z,54.20
2019-02-21T21:54:21.796Z,59.17
2019-02-21T21:56:49.374Z,54.53
2019-02-21T21:59:16.979Z,53.80
2019-02-21T22:01:44.483Z,51.23
2019-02-21T22:04:12.585Z,53.92
2019-02-21T22:06:40.107Z,58.70
2019-02-21T22:09:07.659Z,57.80
2019-02-21T22:11:35.257Z,53.10
2019-02-21T22:14:02.802Z,57.83
2019-02-21T22:16:30.309Z,57.38
2019-02-21T22:18:57.767Z,55.03
2019-02-21T22:21:25.272Z,55.25
2019-02-21T22:23:52.862Z,55.70
2019-02-21T22:26:21.478Z,56.40
2019-02-21T22:28:49.040Z,56.33
2019-02-21T22:31:16.507Z,52.07
2019-02-21T22:33:43.996Z,51.13
2019-02-21T22:36:12.295Z,53.80
2019-02-21T22:38:39.815Z,53.33
2019-02-21T22:41:07.336Z,59.90
2019-02-21T22:43:34.842Z,52.73
2019-02-21T22:46:02.336Z,54.23
2019-02-21T22:48:29.948Z,48.50
2019-02-21T22:50:57.465Z,49.37
2019-02-21T22:53:24.952Z,45.43
2019-02-21T22:55:52.452Z,54.17
2019-02-21T22:58:19.925Z,57.10
2019-02-21T23:00:53.721Z,61.03
2019-02-21T23:03:21.215Z,61.37
2019-02-21T23:06:11.211Z,57.63
2019-02-21T23:08:47.156Z,61.40
2019-02-21T23:11:14.644Z,61.93
2019-02-21T23:13:42.168Z,65.27
2019-02-21T23:16:09.594Z,74.20
2019-02-21T23:18:37.032Z,68.63
2019-02-21T23:21:04.472Z,64.73
2019-02-21T23:23:31.955Z,65.82
2019-02-21T23:25:59.397Z,65.18
2019-02-21T23:28:26.859Z,63.03
2019-02-21T23:30:54.307Z,69.23
2019-02-21T23:33:21.791Z,73.70
2019-02-21T23:35:49.262Z,72.80
2019-02-21T23:38:16.736Z,74.67
2019-02-21T23:40:44.440Z,71.62
2019-02-21T23:43:11.906Z,72.30
2019-02-21T23:45:40.027Z,70.27
2019-02-21T23:48:07.542Z,77.60
2019-02-21T23:50:35.004Z,73.70
2019-02-21T23:53:02.484Z,62.60
2019-02-21T23:55:29.940Z,68.40
2019-02-21T23:57:57.390Z,70.90
